Terminal Aerodrome Forecast
Issued by NWS

Home | Current Version | Previous Version | Graphics & Text | Print | Product List | Glossary On
Versions: 1 2 3 4 5 6 7 8 9 10 11 12 13 14 15 16 17 18 19 20 21 22 23 24 25 26 27 28 29 30 31 32 33 34
000
FTUS45 KGGW 051100
TAFOLF
TAF
KOLF 051123Z 0512/0612 04010KT 3SM BR BKN040 BKN090
     FM051800 01013KT P6SM VCSH BKN045 BKN070
     FM060000 35010KT P6SM BKN070
     FM060300 VRB05KT P6SM BKN060=

USA.gov is the U.S. government's official web portal to all federal, state and local government web resources and services.